Archival Weather

Fukuoka

Fukuoka, Japan (RJFF)

Report from: Tuesday, August 16, 2022 4:03 PM JST
Current time: Sunday, November 27, 2022 5:07 PM JST

Current weather
Weather history
Weather forecast

Present weatherHeavy thunderstorm with rain
Temperature27.0°C (80.6°F)
Heat index30.6°C (87.0°F)
Dew point25.0°C (77.0°F)
Winds 11 kts (5.7 m/s, 12.7 mph) South (190°)
Visibility0.9 mi. (1.5 km)
Clouds Few clouds 1,000 ft. (305 m)
Scattered clouds with cumulonimbus 3,000 ft. (914 m)
Ceiling: Broken clouds 4,500 ft. (1,372 m)
Altimeter29.74 in.Hg (1007 mB)
Precip. events C 4:03 PM
Relative humidity89 %
Density altitude2,017 ft. (615 m)
Remarks Special weather observation
Thunderstorm south southwest moving northeast
Flight conditions Low Instrument Meteorological Conditions
Raw dataSPJP31 KWBC 160715 SPECI RJFF 160703Z 19011KT 1500 R16/0800VP2000D +TSRA FEW010 SCT030CB BKN045 27/25 Q1007 RMK 1ST010 3CB030 5CU045 A2974 FBL TS 15KM S-SW MOV NE RI++
An error has occurred. This application may no longer respond until reloaded. Reload 🗙